Station History

Weather Underground - logo

Station Historical Data
Daily Summary for July 12, 2017 Units:  English    Metric   Both
« Previous Day
Next Day »
Daily Weekly Monthly Yearly Custom
  High: Low: Average:
Temperature: TemperatureF °F 65.8 °F 83.3 °F
Dew Point: DewpointF °F 53.2 °F 60.1 °F
Humidity: Humidity % 24 % 49 %
Wind Speed: WindSpeedMPH mph 0.0 mph 1.3 mph
Wind Gust: WindSpeedGustMPH mph - -
Wind:- - SSW
Pressure: PressureIn in 29.76 in -
Precipitation: 0.00 in    
Historical Graphs
 
 
Tabular Data for July 12, 2017
Time Temperature Dew Point Pressure Wind Wind Speed Wind Gust Humidity Rainfall Rate (Hourly)
TemperatureF °F DewpointF °F PressureIn in Calm     Humidity % HourlyPrecipIn in
00:03 76.9 °F 59.0 °F 29.78 in Calm     54 % 0.00 in
00:08 76.4 °F 60.0 °F 29.78 in Calm     57 % 0.00 in
00:13 75.9 °F 59.1 °F 29.78 in Calm     56 % 0.00 in
00:18 75.8 °F 60.0 °F 29.79 in Calm     58 % 0.00 in
00:23 75.3 °F 60.9 °F 29.79 in SE 1.2 mph 1.2 mph 61 % 0.00 in
00:28 74.6 °F 60.7 °F 29.79 in Calm     62 % 0.00 in
00:33 74.2 °F 61.2 °F 29.79 in Calm     64 % 0.00 in
00:38 73.9 °F 61.8 °F 29.79 in Calm     66 % 0.00 in
00:43 73.6 °F 62.0 °F 29.79 in Calm     67 % 0.00 in
00:48 73.3 °F 62.1 °F 29.79 in Calm     68 % 0.00 in
00:53 73.1 °F 61.9 °F 29.79 in Calm     68 % 0.00 in
00:58 72.9 °F 62.1 °F 29.79 in Calm     69 % 0.00 in
01:03 72.7 °F 61.9 °F 29.79 in Calm     69 % 0.00 in
01:08 72.4 °F 62.1 °F 29.79 in Calm     70 % 0.00 in
01:13 72.2 °F 61.9 °F 29.79 in Calm     70 % 0.00 in
01:18 72.0 °F 62.1 °F 29.79 in Calm     71 % 0.00 in
01:23 71.6 °F 61.7 °F 29.79 in Calm     71 % 0.00 in
01:28 71.4 °F 61.9 °F 29.79 in Calm     72 % 0.00 in
01:34 71.3 °F 61.8 °F 29.79 in Calm     72 % 0.00 in
01:39 71.3 °F 61.0 °F 29.79 in Calm     70 % 0.00 in
01:44 71.2 °F 60.1 °F 29.79 in Calm     68 % 0.00 in
01:49 71.1 °F 60.0 °F 29.79 in Calm     68 % 0.00 in
01:54 71.2 °F 58.8 °F 29.79 in Calm     65 % 0.00 in
01:59 71.3 °F 59.4 °F 29.79 in Calm     66 % 0.00 in
02:04 71.2 °F 59.7 °F 29.79 in ESE 1.2 mph   67 % 0.00 in
02:09 71.1 °F 60.0 °F 29.79 in Calm     68 % 0.00 in
02:14 70.9 °F 60.2 °F 29.79 in Calm     69 % 0.00 in
02:19 70.6 °F 59.9 °F 29.79 in ESE 1.2 mph   69 % 0.00 in
02:24 70.3 °F 59.2 °F 29.80 in Calm     68 % 0.00 in
02:29 70.1 °F 59.0 °F 29.80 in Calm     68 % 0.00 in
02:34 69.9 °F 58.9 °F 29.80 in Calm     68 % 0.00 in
02:39 69.8 °F 59.2 °F 29.80 in Calm     69 % 0.00 in
02:44 69.7 °F 59.5 °F 29.80 in Calm     70 % 0.00 in
02:49 69.6 °F 59.4 °F 29.80 in Calm     70 % 0.00 in
02:54 69.5 °F 59.7 °F 29.80 in Calm     71 % 0.00 in
02:59 69.4 °F 59.6 °F 29.80 in Calm     71 % 0.00 in
03:04 69.3 °F 59.9 °F 29.80 in Calm     72 % 0.00 in
03:09 69.1 °F 59.7 °F 29.80 in Calm     72 % 0.00 in
03:14 69.0 °F 60.0 °F 29.80 in Calm     73 % 0.00 in
03:19 68.8 °F 60.2 °F 29.80 in Calm     74 % 0.00 in
03:24 68.9 °F 59.9 °F 29.81 in SE 1.2 mph   73 % 0.00 in
03:29 69.1 °F 59.7 °F 29.80 in Calm     72 % 0.00 in
03:34 69.1 °F 59.7 °F 29.80 in Calm     72 % 0.00 in
03:39 68.9 °F 59.5 °F 29.81 in Calm     72 % 0.00 in
03:44 68.8 °F 59.4 °F 29.81 in Calm     72 % 0.00 in
03:49 68.6 °F 59.2 °F 29.81 in Calm     72 % 0.00 in
03:54 68.5 °F 59.5 °F 29.81 in Calm     73 % 0.00 in
03:59 68.3 °F 59.3 °F 29.81 in Calm     73 % 0.00 in
04:01 68.3 °F 59.3 °F 29.81 in Calm     73 % 0.00 in
04:06 68.0 °F 59.4 °F 29.81 in Calm     74 % 0.00 in
04:11 67.7 °F 59.1 °F 29.81 in Calm     74 % 0.00 in
04:16 67.5 °F 59.3 °F 29.81 in Calm     75 % 0.00 in
04:21 67.4 °F 58.8 °F 29.82 in Calm     74 % 0.00 in
04:26 67.3 °F 58.7 °F 29.82 in Calm     74 % 0.00 in
04:31 67.2 °F 59.0 °F 29.82 in SE 1.2 mph 1.2 mph 75 % 0.00 in
04:36 67.0 °F 59.2 °F 29.82 in SE 1.2 mph   76 % 0.00 in
04:41 66.9 °F 59.5 °F 29.82 in Calm     77 % 0.00 in
04:46 66.8 °F 59.4 °F 29.82 in Calm     77 % 0.00 in
04:51 66.7 °F 58.9 °F 29.83 in SE 2.3 mph 2.3 mph 76 % 0.00 in
04:56 66.7 °F 59.3 °F 29.83 in SE 1.2 mph 1.2 mph 77 % 0.00 in
05:01 66.6 °F 59.2 °F 29.83 in Calm     77 % 0.00 in
05:06 66.6 °F 58.8 °F 29.83 in SE 1.0 mph   76 % 0.00 in
05:11 66.6 °F 58.8 °F 29.83 in Calm     76 % 0.00 in
05:16 66.6 °F 58.8 °F 29.83 in Calm     76 % 0.00 in
05:21 66.6 °F 58.8 °F 29.83 in Calm     76 % 0.00 in
05:26 66.5 °F 58.7 °F 29.83 in Calm     76 % 0.00 in
05:31 66.4 °F 58.6 °F 29.83 in Calm     76 % 0.00 in
05:36 66.4 °F 59.3 °F 29.84 in Calm     78 % 0.00 in
05:41 66.2 °F 59.1 °F 29.84 in Calm     78 % 0.00 in
05:46 66.1 °F 58.7 °F 29.84 in Calm     77 % 0.00 in
05:51 65.9 °F 58.5 °F 29.84 in Calm     77 % 0.00 in
05:56 65.9 °F 58.8 °F 29.84 in Calm     78 % 0.00 in
06:01 65.9 °F 58.5 °F 29.84 in Calm     77 % 0.00 in
06:06 65.8 °F 58.4 °F 29.85 in Calm     77 % 0.00 in
06:11 65.8 °F 58.4 °F 29.85 in Calm     77 % 0.00 in
06:16 65.9 °F 58.1 °F 29.85 in Calm     76 % 0.00 in
06:21 66.3 °F 58.1 °F 29.85 in Calm     75 % 0.00 in
06:26 66.7 °F 57.8 °F 29.85 in Calm     73 % 0.00 in
06:31 67.1 °F 58.5 °F 29.85 in Calm     74 % 0.00 in
06:36 67.3 °F 58.3 °F 29.85 in Calm     73 % 0.00 in
06:41 67.6 °F 58.2 °F 29.85 in Calm     72 % 0.00 in
06:46 67.9 °F 58.5 °F 29.85 in Calm     72 % 0.00 in
06:51 68.5 °F 58.7 °F 29.86 in SE 1.2 mph   71 % 0.00 in
06:56 69.7 °F 59.1 °F 29.86 in SE 1.0 mph   69 % 0.00 in
07:01 70.8 °F 59.3 °F 29.86 in SE 1.2 mph   67 % 0.00 in
07:06 71.7 °F 59.3 °F 29.86 in Calm     65 % 0.00 in
07:11 72.4 °F 59.5 °F 29.86 in SE 1.2 mph 1.2 mph 64 % 0.00 in
07:16 73.2 °F 59.4 °F 29.86 in SE 1.2 mph 1.2 mph 62 % 0.00 in
07:22 73.7 °F 59.4 °F 29.86 in Calm   0.1 mph 61 % 0.00 in
07:27 74.1 °F 60.2 °F 29.86 in SE 1.2 mph 1.2 mph 62 % 0.00 in
07:32 74.5 °F 60.2 °F 29.86 in SSE 1.2 mph   61 % 0.00 in
07:37 74.9 °F 59.1 °F 29.86 in SSE 1.2 mph 1.2 mph 58 % 0.00 in
07:42 75.5 °F 59.7 °F 29.86 in SE 2.3 mph 2.3 mph 58 % 0.00 in
07:47 75.8 °F 60.0 °F 29.86 in SSE 2.3 mph 2.3 mph 58 % 0.00 in
07:52 76.3 °F 59.4 °F 29.86 in SSE 1.2 mph 1.2 mph 56 % 0.00 in
07:57 76.6 °F 59.7 °F 29.87 in East 2.3 mph 2.3 mph 56 % 0.00 in
08:02 77.0 °F 59.6 °F 29.87 in East 1.2 mph 1.2 mph 55 % 0.00 in
08:03 77.1 °F 59.7 °F 29.87 in East 1.2 mph   55 % 0.00 in
08:08 77.8 °F 58.8 °F 29.87 in ESE 2.3 mph 2.3 mph 52 % 0.00 in
08:13 78.2 °F 59.1 °F 29.87 in SE 3.5 mph 3.5 mph 52 % 0.00 in
08:18 78.3 °F 59.8 °F 29.87 in East 2.3 mph 2.3 mph 53 % 0.00 in
08:23 78.7 °F 59.0 °F 29.87 in SSE 2.3 mph 2.3 mph 51 % 0.00 in
08:28 79.3 °F 59.0 °F 29.87 in SSE 2.3 mph 2.3 mph 50 % 0.00 in
08:33 79.5 °F 59.2 °F 29.87 in ESE 3.5 mph   50 % 0.00 in
08:38 79.9 °F 59.6 °F 29.87 in ESE 3.5 mph 3.5 mph 50 % 0.00 in
08:43 80.1 °F 59.2 °F 29.87 in NE 2.3 mph 2.3 mph 49 % 0.00 in
08:48 80.6 °F 59.7 °F 29.87 in SSE 1.2 mph 1.2 mph 49 % 0.00 in
08:53 81.0 °F 59.5 °F 29.87 in SSE 3.5 mph 3.5 mph 48 % 0.00 in
08:59 81.1 °F 59.0 °F 29.87 in NE 3.5 mph 3.5 mph 47 % 0.00 in
09:04 81.4 °F 58.0 °F 29.87 in SE 4.6 mph 4.6 mph 45 % 0.00 in
09:09 81.7 °F 58.9 °F 29.87 in SSE 2.3 mph 2.3 mph 46 % 0.00 in
09:14 82.3 °F 60.1 °F 29.87 in SW 1.2 mph 1.2 mph 47 % 0.00 in
09:19 82.6 °F 58.5 °F 29.88 in South 3.5 mph 3.5 mph 44 % 0.00 in
09:24 82.9 °F 58.1 °F 29.88 in East 3.5 mph 3.5 mph 43 % 0.00 in
09:29 83.3 °F 59.1 °F 29.88 in South 2.3 mph 2.3 mph 44 % 0.00 in
09:34 83.6 °F 58.1 °F 29.87 in SW 4.0 mph 4.0 mph 42 % 0.00 in
09:39 83.8 °F 58.9 °F 29.87 in SSE 4.6 mph 4.6 mph 43 % 0.00 in
09:44 84.2 °F 59.9 °F 29.87 in East 3.5 mph 3.5 mph 44 % 0.00 in
09:49 84.3 °F 59.4 °F 29.87 in South 3.5 mph 3.5 mph 43 % 0.00 in
09:54 84.6 °F 60.3 °F 29.87 in East 3.5 mph 3.5 mph 44 % 0.00 in
09:59 85.0 °F 60.0 °F 29.87 in East 3.5 mph 3.5 mph 43 % 0.00 in
10:04 85.2 °F 60.8 °F 29.87 in SSE 2.3 mph 2.3 mph 44 % 0.00 in
10:09 85.6 °F 59.9 °F 29.87 in SE 3.5 mph 3.5 mph 42 % 0.00 in
10:14 85.8 °F 60.1 °F 29.87 in SSE 4.6 mph 4.6 mph 42 % 0.00 in
10:19 86.0 °F 60.9 °F 29.87 in SE 2.3 mph 2.3 mph 43 % 0.00 in
10:24 86.7 °F 59.5 °F 29.87 in East 3.5 mph 3.5 mph 40 % 0.00 in
10:29 87.0 °F 61.1 °F 29.87 in SSE 2.3 mph 2.3 mph 42 % 0.00 in
10:34 87.6 °F 61.0 °F 29.87 in SSW 2.3 mph 2.3 mph 41 % 0.00 in
10:39 88.0 °F 61.3 °F 29.87 in SE 3.5 mph 3.5 mph 41 % 0.00 in
10:44 88.3 °F 63.0 °F 29.87 in NNW 2.3 mph 2.3 mph 43 % 0.00 in
10:49 88.3 °F 60.9 °F 29.87 in SSW 3.5 mph 3.5 mph 40 % 0.00 in
10:54 88.4 °F 61.0 °F 29.87 in South 2.0 mph 2.0 mph 40 % 0.00 in
10:59 88.6 °F 61.2 °F 29.87 in West 2.3 mph 2.3 mph 40 % 0.00 in
11:04 88.8 °F 61.4 °F 29.87 in South 1.2 mph 1.2 mph 40 % 0.00 in
11:10 89.4 °F 62.6 °F 29.87 in SSW 1.2 mph 1.2 mph 41 % 0.00 in
11:14 89.8 °F 60.8 °F 29.86 in SE 2.3 mph 2.3 mph 38 % 0.00 in
11:19 89.4 °F 61.9 °F 29.87 in NW 3.5 mph   40 % 0.00 in
11:24 89.5 °F 61.3 °F 29.86 in SE 3.5 mph 3.5 mph 39 % 0.00 in
11:29 90.0 °F 62.4 °F 29.86 in SE 2.3 mph 2.3 mph 40 % 0.00 in
11:34 90.1 °F 61.8 °F 29.86 in South 2.3 mph 2.3 mph 39 % 0.00 in
11:39 90.4 °F 61.3 °F 29.86 in NNW 1.2 mph 1.2 mph 38 % 0.00 in
11:45 90.3 °F 62.7 °F 29.86 in ENE 1.2 mph 1.2 mph 40 % 0.00 in
11:50 90.5 °F 60.7 °F 29.86 in NW 2.3 mph 2.3 mph 37 % 0.00 in
11:55 90.0 °F 61.7 °F 29.86 in NNE 2.3 mph 2.3 mph 39 % 0.00 in
12:00 90.6 °F 63.0 °F 29.86 in Calm     40 % 0.00 in
12:05 91.4 °F 61.5 °F 29.86 in SSE 1.2 mph 1.2 mph 37 % 0.00 in
12:10 91.7 °F 61.7 °F 29.86 in ENE 1.2 mph 1.2 mph 37 % 0.00 in
12:15 91.9 °F 61.1 °F 29.86 in NW 2.3 mph 2.3 mph 36 % 0.00 in
12:20 91.8 °F 62.6 °F 29.85 in NW 3.5 mph 3.5 mph 38 % 0.00 in
12:25 92.2 °F 61.4 °F 29.85 in NW 1.2 mph 1.2 mph 36 % 0.00 in
12:30 92.9 °F 60.4 °F 29.85 in NW 2.3 mph 2.3 mph 34 % 0.00 in
12:35 92.4 °F 63.1 °F 29.85 in WNW 1.2 mph 1.2 mph 38 % 0.00 in
12:40 92.9 °F 60.4 °F 29.85 in ENE 2.3 mph 2.3 mph 34 % 0.00 in
12:45 93.7 °F 61.1 °F 29.85 in WNW 1.2 mph 1.2 mph 34 % 0.00 in
12:50 93.8 °F 60.3 °F 29.85 in NW 2.3 mph 2.3 mph 33 % 0.00 in
12:55 94.4 °F 60.9 °F 29.85 in NNW 1.2 mph 1.2 mph 33 % 0.00 in
13:00 94.8 °F 61.2 °F 29.84 in East 1.2 mph 1.2 mph 33 % 0.00 in
13:05 95.0 °F 62.2 °F 29.84 in NW 1.2 mph 1.2 mph 34 % 0.00 in
13:10 95.4 °F 61.7 °F 29.84 in NW 3.5 mph 3.5 mph 33 % 0.00 in
13:15 95.0 °F 60.5 °F 29.84 in NW 3.5 mph 3.5 mph 32 % 0.00 in
13:20 94.7 °F 56.5 °F 29.84 in West 3.5 mph 3.5 mph 28 % 0.00 in
13:25 94.9 °F 58.6 °F 29.84 in NNW 2.3 mph 2.3 mph 30 % 0.00 in
13:28 95.7 °F 60.2 °F 29.84 in WNW 1.2 mph 1.2 mph 31 % 0.00 in
13:33 96.2 °F 59.7 °F 29.83 in NNW 3.5 mph 3.5 mph 30 % 0.00 in
13:38 96.5 °F 60.9 °F 29.83 in North 3.5 mph 3.5 mph 31 % 0.00 in
13:43 96.3 °F 62.5 °F 29.83 in West 2.3 mph 2.3 mph 33 % 0.00 in
13:48 96.3 °F 59.8 °F 29.83 in North 4.0 mph 4.0 mph 30 % 0.00 in
13:49 96.3 °F 59.8 °F 29.83 in NW 3.5 mph 3.5 mph 30 % 0.00 in
13:54 96.3 °F 60.7 °F 29.83 in West 2.3 mph 2.3 mph 31 % 0.00 in
13:59 97.0 °F 61.4 °F 29.83 in NW 2.3 mph 2.3 mph 31 % 0.00 in
14:04 96.8 °F 60.3 °F 29.83 in NW 3.5 mph 3.5 mph 30 % 0.00 in
14:09 96.6 °F 59.1 °F 29.83 in NW 4.6 mph 4.6 mph 29 % 0.00 in
14:14 97.0 °F 60.4 °F 29.82 in WNW 2.3 mph 2.3 mph 30 % 0.00 in
14:19 97.1 °F 59.6 °F 29.82 in North 3.5 mph 3.5 mph 29 % 0.00 in
14:24 97.1 °F 60.5 °F 29.82 in WNW 2.3 mph 2.3 mph 30 % 0.00 in
14:29 97.7 °F 60.1 °F 29.82 in West 3.5 mph 3.5 mph 29 % 0.00 in
14:34 97.6 °F 62.8 °F 29.82 in NNW 2.3 mph 2.3 mph 32 % 0.00 in
14:39 98.1 °F 61.4 °F 29.82 in SW 2.3 mph 2.3 mph 30 % 0.00 in
14:44 98.4 °F 59.7 °F 29.81 in WNW 1.2 mph 1.2 mph 28 % 0.00 in
14:49 98.4 °F 62.6 °F 29.81 in NW 3.0 mph 3.0 mph 31 % 0.00 in
14:54 98.3 °F 59.6 °F 29.81 in NW 3.5 mph 3.5 mph 28 % 0.00 in
14:59 98.5 °F 62.6 °F 29.81 in NNW 1.2 mph 1.2 mph 31 % 0.00 in
15:04 98.4 °F 61.6 °F 29.81 in NNE 3.5 mph 3.5 mph 30 % 0.00 in
15:09 98.2 °F 60.5 °F 29.80 in North 2.3 mph 2.3 mph 29 % 0.00 in
15:14 98.3 °F 62.5 °F 29.80 in SE 2.0 mph 2.0 mph 31 % 0.00 in
15:19 98.2 °F 59.5 °F 29.80 in NNW 3.5 mph 3.5 mph 28 % 0.00 in
15:24 98.2 °F 61.5 °F 29.80 in NNE 3.5 mph 3.5 mph 30 % 0.00 in
15:29 98.2 °F 58.5 °F 29.80 in NW 2.3 mph 2.3 mph 27 % 0.00 in
15:34 98.8 °F 63.8 °F 29.80 in ESE 1.2 mph 1.2 mph 32 % 0.00 in
15:39 98.9 °F 60.1 °F 29.79 in WSW 3.5 mph 3.5 mph 28 % 0.00 in
15:44 99.2 °F 60.4 °F 29.79 in NW 2.3 mph 2.3 mph 28 % 0.00 in
15:49 99.1 °F 60.3 °F 29.79 in SW 2.3 mph 2.3 mph 28 % 0.00 in
15:54 99.4 °F 59.5 °F 29.79 in WNW 1.2 mph 1.2 mph 27 % 0.00 in
15:59 99.5 °F 59.6 °F 29.79 in NNW 1.2 mph 1.2 mph 27 % 0.00 in
16:04 99.8 °F 60.9 °F 29.78 in NW 1.2 mph 1.2 mph 28 % 0.00 in
16:09 99.8 °F 62.8 °F 29.78 in SW 3.0 mph 3.0 mph 30 % 0.00 in
16:14 99.6 °F 61.7 °F 29.78 in NW 2.3 mph 2.3 mph 29 % 0.00 in
16:19 99.7 °F 60.8 °F 29.78 in North 3.5 mph 3.5 mph 28 % 0.00 in
16:24 100.2 °F 60.2 °F 29.78 in NW 3.5 mph 3.5 mph 27 % 0.00 in
16:29 100.0 °F 63.0 °F 29.78 in West 3.5 mph 3.5 mph 30 % 0.00 in
16:35 99.7 °F 60.8 °F 29.77 in North 3.5 mph 3.5 mph 28 % 0.00 in
16:40 99.6 °F 60.7 °F 29.77 in NW 3.5 mph 3.5 mph 28 % 0.00 in
16:45 99.3 °F 60.5 °F 29.77 in NNW 2.3 mph 2.3 mph 28 % 0.00 in
16:50 99.6 °F 59.7 °F 29.77 in WNW 2.3 mph 2.3 mph 27 % 0.00 in
16:54 99.7 °F 60.8 °F 29.77 in North 2.3 mph 2.3 mph 28 % 0.00 in
16:59 99.7 °F 58.7 °F 29.77 in NNE 2.3 mph 2.3 mph 26 % 0.00 in
17:05 99.5 °F 58.5 °F 29.77 in NNE 1.2 mph 1.2 mph 26 % 0.00 in
17:10 99.7 °F 60.8 °F 29.77 in WNW 1.2 mph 1.2 mph 28 % 0.00 in
17:15 99.6 °F 60.7 °F 29.77 in NW 2.0 mph 2.0 mph 28 % 0.00 in
17:20 99.7 °F 58.7 °F 29.77 in NNW 2.0 mph 2.0 mph 26 % 0.00 in
17:25 99.5 °F 58.5 °F 29.77 in SE 1.2 mph 1.2 mph 26 % 0.00 in
17:30 99.8 °F 59.9 °F 29.77 in NE 1.2 mph   27 % 0.00 in
17:35 99.9 °F 57.8 °F 29.77 in ENE 1.2 mph 1.2 mph 25 % 0.00 in
17:40 99.5 °F 58.5 °F 29.77 in North 1.2 mph 1.2 mph 26 % 0.00 in
17:45 99.3 °F 58.4 °F 29.76 in NW 2.3 mph 2.3 mph 26 % 0.00 in
17:50 99.0 °F 59.2 °F 29.76 in NNW 1.0 mph   27 % 0.00 in
17:55 98.8 °F 55.7 °F 29.76 in NNW 3.5 mph 3.5 mph 24 % 0.00 in
18:00 98.6 °F 56.7 °F 29.76 in NW 3.0 mph 3.0 mph 25 % 0.00 in
18:05 98.7 °F 58.9 °F 29.76 in WSW 1.2 mph 1.2 mph 27 % 0.00 in
18:10 98.9 °F 56.9 °F 29.76 in WNW 3.5 mph 3.5 mph 25 % 0.00 in
18:15 98.6 °F 55.6 °F 29.76 in WNW 2.3 mph 2.3 mph 24 % 0.00 in
18:20 98.3 °F 56.4 °F 29.76 in WNW 2.3 mph 2.3 mph 25 % 0.00 in
18:25 98.2 °F 58.5 °F 29.76 in West 1.2 mph 1.2 mph 27 % 0.00 in
18:30 98.3 °F 58.6 °F 29.76 in WNW 1.2 mph 1.2 mph 27 % 0.00 in
18:35 98.3 °F 58.6 °F 29.76 in NW 1.2 mph 1.2 mph 27 % 0.00 in
18:40 98.0 °F 55.1 °F 29.76 in NW 2.3 mph 2.3 mph 24 % 0.00 in
18:45 97.7 °F 58.1 °F 29.76 in NW 1.2 mph 1.2 mph 27 % 0.00 in
18:50 97.5 °F 57.9 °F 29.76 in NW 2.3 mph 2.3 mph 27 % 0.00 in
18:55 97.0 °F 57.5 °F 29.76 in NW 2.3 mph 2.3 mph 27 % 0.00 in
19:00 96.6 °F 58.2 °F 29.76 in NW 3.0 mph 3.0 mph 28 % 0.00 in
19:05 95.9 °F 56.5 °F 29.76 in NW 2.3 mph 2.3 mph 27 % 0.00 in
19:10 95.5 °F 55.2 °F 29.76 in NW 2.3 mph 2.3 mph 26 % 0.00 in
19:15 95.6 °F 54.2 °F 29.76 in NW 2.3 mph 2.3 mph 25 % 0.00 in
19:20 95.5 °F 54.1 °F 29.76 in NW 1.2 mph 1.2 mph 25 % 0.00 in
19:25 95.1 °F 53.7 °F 29.76 in NW 1.2 mph 1.2 mph 25 % 0.00 in
19:28 94.9 °F 54.7 °F 29.77 in WNW 2.3 mph 2.3 mph 26 % 0.00 in
19:33 94.5 °F 53.2 °F 29.77 in WNW 2.3 mph 2.3 mph 25 % 0.00 in
19:38 94.2 °F 55.1 °F 29.77 in WNW 1.2 mph 1.2 mph 27 % 0.00 in
19:43 93.7 °F 55.7 °F 29.77 in Calm     28 % 0.00 in
19:48 93.2 °F 56.2 °F 29.77 in WNW 1.2 mph 1.2 mph 29 % 0.00 in
19:54 92.5 °F 56.6 °F 29.77 in Calm     30 % 0.00 in
19:59 91.8 °F 56.9 °F 29.77 in Calm     31 % 0.00 in
20:04 91.3 °F 58.2 °F 29.77 in Calm     33 % 0.00 in
20:09 90.5 °F 59.1 °F 29.77 in Calm     35 % 0.00 in
20:14 89.7 °F 60.7 °F 29.77 in Calm     38 % 0.00 in
20:19 88.8 °F 60.7 °F 29.78 in Calm     39 % 0.00 in
20:24 88.0 °F 59.9 °F 29.78 in Calm     39 % 0.00 in
20:29 87.3 °F 61.4 °F 29.78 in Calm     42 % 0.00 in
20:34 86.6 °F 62.1 °F 29.78 in Calm     44 % 0.00 in
20:39 86.0 °F 61.5 °F 29.78 in Calm     44 % 0.00 in
20:44 85.7 °F 61.3 °F 29.78 in Calm     44 % 0.00 in
20:49 85.1 °F 60.7 °F 29.78 in Calm     44 % 0.00 in
20:54 84.6 °F 61.5 °F 29.78 in Calm     46 % 0.00 in
20:59 84.1 °F 64.6 °F 29.79 in Calm     52 % 0.00 in
21:04 83.6 °F 63.6 °F 29.79 in Calm     51 % 0.00 in
21:09 82.9 °F 62.4 °F 29.79 in Calm     50 % 0.00 in
21:14 82.3 °F 62.4 °F 29.79 in Calm     51 % 0.00 in
21:19 82.0 °F 63.2 °F 29.80 in Calm     53 % 0.00 in
21:24 81.7 °F 62.9 °F 29.80 in Calm     53 % 0.00 in
21:29 81.4 °F 65.2 °F 29.80 in Calm     58 % 0.00 in
21:34 81.2 °F 66.0 °F 29.80 in Calm     60 % 0.00 in
21:39 80.9 °F 65.7 °F 29.80 in Calm     60 % 0.00 in
21:44 80.8 °F 66.1 °F 29.80 in Calm     61 % 0.00 in
21:49 80.8 °F 65.6 °F 29.81 in Calm     60 % 0.00 in
21:54 80.6 °F 64.9 °F 29.81 in Calm     59 % 0.00 in
21:59 80.2 °F 65.5 °F 29.81 in Calm     61 % 0.00 in
22:04 79.8 °F 65.2 °F 29.81 in Calm     61 % 0.00 in
22:09 79.6 °F 66.3 °F 29.81 in Calm     64 % 0.00 in
22:14 79.4 °F 66.2 °F 29.81 in Calm     64 % 0.00 in
22:19 79.2 °F 66.0 °F 29.81 in Calm     64 % 0.00 in
22:24 78.9 °F 66.1 °F 29.81 in Calm     65 % 0.00 in
22:29 78.7 °F 65.9 °F 29.81 in Calm     65 % 0.00 in
22:34 78.4 °F 65.2 °F 29.81 in Calm     64 % 0.00 in
22:39 78.4 °F 65.7 °F 29.81 in WNW 1.2 mph   65 % 0.00 in
22:44 78.9 °F 63.8 °F 29.82 in Calm     60 % 0.00 in
22:49 79.7 °F 64.1 °F 29.82 in Calm     59 % 0.00 in
22:54 80.6 °F 62.9 °F 29.82 in Calm     55 % 0.00 in
22:59 81.6 °F 63.3 °F 29.82 in Calm     54 % 0.00 in
23:04 82.3 °F 62.4 °F 29.82 in Calm     51 % 0.00 in
23:09 82.9 °F 62.4 °F 29.82 in WNW 1.2 mph   50 % 0.00 in
23:14 83.0 °F 62.4 °F 29.82 in Calm     50 % 0.00 in
23:19 82.8 °F 63.4 °F 29.82 in Calm     52 % 0.00 in
23:24 82.2 °F 64.4 °F 29.82 in Calm     55 % 0.00 in
23:29 81.4 °F 63.7 °F 29.82 in Calm     55 % 0.00 in
23:34 80.4 °F 62.8 °F 29.82 in Calm     55 % 0.00 in
23:40 79.6 °F 63.5 °F 29.83 in Calm     58 % 0.00 in
23:42 79.1 °F 64.0 °F 29.83 in Calm     60 % 0.00 in
23:47 78.3 °F 64.2 °F 29.83 in Calm     62 % 0.00 in
23:52 77.5 °F 65.2 °F 29.83 in Calm     66 % 0.00 in
23:57 76.9 °F 64.2 °F 29.83 in Calm     65 % 0.00 in
Park Place, Exeter, Tulare County, California, USA
Compliments of Weather Underground - 2.75 mb